createdAt,value
2022-11-24T00:01:36.730Z,58.48
2022-11-24T00:06:43.906Z,59.74
2022-11-24T00:11:51.222Z,59.99
2022-11-24T00:16:58.531Z,58.73
2022-11-24T00:22:05.702Z,57.72
2022-11-24T00:27:13.021Z,58.23
2022-11-24T00:32:20.169Z,62.48
2022-11-24T00:37:27.382Z,44.85
2022-11-24T00:42:34.614Z,51.01
2022-11-24T00:47:41.783Z,47.56
2022-11-24T00:52:49.004Z,51.80
2022-11-24T00:57:56.233Z,48.09
2022-11-24T01:03:03.555Z,50.75
2022-11-24T01:08:10.718Z,49.43
2022-11-24T01:13:17.940Z,48.36
2022-11-24T01:18:25.135Z,48.36
2022-11-24T01:23:32.408Z,48.63
2022-11-24T01:28:46.314Z,49.43
2022-11-24T01:33:46.883Z,46.21
2022-11-24T01:38:54.091Z,51.01
2022-11-24T01:44:01.418Z,49.96
2022-11-24T01:49:08.565Z,49.96
2022-11-24T01:54:15.769Z,48.90
2022-11-24T01:59:23.131Z,49.43
2022-11-24T02:04:30.253Z,48.90
2022-11-24T02:09:37.481Z,51.27
2022-11-24T02:14:44.781Z,49.43
2022-11-24T02:19:51.924Z,49.16
2022-11-24T02:24:59.129Z,49.16
2022-11-24T02:30:06.436Z,47.02
2022-11-24T02:35:13.660Z,50.22
2022-11-24T02:40:20.928Z,45.67
2022-11-24T02:45:28.146Z,44.03
2022-11-24T02:50:35.313Z,49.96
2022-11-24T02:55:42.513Z,44.85
2022-11-24T03:00:49.701Z,51.01
2022-11-24T03:05:56.904Z,49.16
2022-11-24T03:11:04.150Z,49.69
2022-11-24T03:16:11.551Z,48.09
2022-11-24T03:21:18.639Z,49.96
2022-11-24T03:26:25.823Z,48.36
2022-11-24T03:31:33.298Z,48.90
2022-11-24T03:36:40.359Z,48.90
2022-11-24T03:41:47.586Z,51.80
2022-11-24T03:46:54.829Z,51.80
2022-11-24T03:52:07.684Z,43.48
2022-11-24T03:57:09.325Z,48.90
2022-11-24T04:02:16.734Z,51.01
2022-11-24T04:07:23.854Z,47.83
2022-11-24T04:12:31.126Z,46.48
2022-11-24T04:17:38.322Z,48.36
2022-11-24T04:22:45.550Z,49.69
2022-11-24T04:27:52.776Z,49.43
2022-11-24T04:32:59.991Z,51.01
2022-11-24T04:38:07.128Z,50.49
2022-11-24T04:43:14.350Z,51.80
2022-11-24T04:48:21.550Z,51.01
2022-11-24T04:53:28.730Z,50.49
2022-11-24T04:58:35.959Z,50.49
2022-11-24T05:03:43.187Z,50.75
2022-11-24T05:08:50.447Z,51.27
2022-11-24T05:13:57.649Z,52.58
2022-11-24T05:19:04.941Z,44.85
2022-11-24T05:24:12.037Z,50.49
2022-11-24T05:29:19.273Z,51.80
2022-11-24T05:34:26.483Z,50.49
2022-11-24T05:39:33.821Z,52.32
2022-11-24T05:44:41.091Z,50.75
2022-11-24T05:49:48.531Z,50.49
2022-11-24T05:54:55.699Z,50.75
2022-11-24T06:00:02.855Z,49.96
2022-11-24T06:05:10.154Z,50.22
2022-11-24T06:10:17.210Z,52.58
2022-11-24T06:15:24.400Z,49.96
2022-11-24T06:20:33.026Z,52.58
2022-11-24T06:25:38.924Z,49.43
2022-11-24T06:30:46.115Z,50.49
2022-11-24T06:35:53.323Z,51.01
2022-11-24T06:41:00.533Z,53.10
2022-11-24T06:46:07.924Z,49.69
2022-11-24T06:51:14.996Z,52.84
2022-11-24T06:56:22.132Z,62.72
2022-11-24T07:01:29.323Z,61.98
2022-11-24T07:06:36.516Z,60.99
2022-11-24T07:11:44.538Z,61.73
2022-11-24T07:16:51.861Z,60.74
2022-11-24T07:21:59.034Z,61.24
2022-11-24T07:27:06.225Z,61.24
2022-11-24T07:32:13.483Z,58.98
2022-11-24T07:37:20.636Z,59.74
2022-11-24T07:42:27.816Z,61.48
2022-11-24T07:47:35.014Z,61.24
2022-11-24T07:52:42.239Z,60.49
2022-11-24T07:57:49.431Z,61.24
2022-11-24T08:02:56.635Z,61.24
2022-11-24T08:08:03.816Z,61.24
2022-11-24T08:13:11.024Z,61.24
2022-11-24T08:18:18.232Z,62.23
2022-11-24T08:23:25.571Z,63.22
2022-11-24T08:28:32.688Z,63.71
2022-11-24T08:33:39.861Z,60.24
2022-11-24T08:38:47.078Z,60.99
2022-11-24T08:43:54.270Z,60.99
2022-11-24T08:49:01.468Z,60.99
2022-11-24T08:54:08.715Z,61.73
2022-11-24T08:59:15.952Z,60.99
2022-11-24T09:04:23.165Z,60.99
2022-11-24T09:09:30.316Z,60.24
2022-11-24T09:14:37.443Z,61.24
2022-11-24T09:21:31.527Z,60.24
2022-11-24T09:26:43.040Z,61.24
2022-11-24T09:31:45.939Z,62.72
2022-11-24T09:36:53.207Z,60.99
2022-11-24T09:42:00.494Z,61.24
2022-11-24T09:47:07.822Z,60.99
2022-11-24T09:52:14.938Z,61.48
2022-11-24T09:57:22.167Z,58.98
2022-11-24T10:02:29.445Z,59.23
2022-11-24T10:07:36.749Z,60.49
2022-11-24T10:12:43.891Z,61.24
2022-11-24T10:17:51.046Z,61.73
2022-11-24T10:22:58.379Z,60.49
2022-11-24T10:28:05.614Z,59.49
2022-11-24T10:33:12.832Z,60.24
2022-11-24T10:38:20.437Z,60.99
2022-11-24T10:43:27.742Z,61.24
2022-11-24T10:48:34.835Z,59.74
2022-11-24T10:53:42.043Z,60.99
2022-11-24T10:58:49.260Z,60.99
2022-11-24T11:03:56.464Z,61.24
2022-11-24T11:09:04.821Z,60.99
2022-11-24T11:14:12.055Z,61.24
2022-11-24T11:19:47.237Z,60.74
2022-11-24T11:24:26.440Z,61.48
2022-11-24T11:34:45.450Z,60.99
2022-11-24T11:39:53.556Z,58.98
2022-11-24T11:45:00.846Z,60.99
2022-11-24T11:50:08.245Z,61.73
2022-11-24T11:55:15.501Z,61.73
2022-11-24T12:00:22.802Z,58.73
2022-11-24T12:05:30.221Z,62.97
2022-11-24T12:10:37.475Z,61.48
2022-11-24T12:15:44.813Z,62.48
2022-11-24T12:20:52.000Z,58.98
2022-11-24T12:25:59.168Z,59.49
2022-11-24T12:31:06.619Z,60.74
2022-11-24T12:36:13.608Z,59.99
2022-11-24T12:46:28.220Z,60.99
2022-11-24T12:51:35.292Z,63.22
2022-11-24T12:56:42.560Z,60.99
2022-11-24T13:01:49.908Z,61.24
2022-11-24T13:06:57.033Z,61.24
2022-11-24T13:12:04.298Z,59.23
2022-11-24T13:17:29.713Z,59.23
2022-11-24T13:22:18.738Z,60.99
2022-11-24T13:27:25.971Z,61.24
2022-11-24T13:32:33.155Z,58.73
2022-11-24T13:37:40.318Z,61.24
2022-11-24T13:42:47.572Z,60.99
2022-11-24T13:47:54.796Z,61.48
2022-11-24T13:53:01.994Z,62.97
2022-11-24T13:58:09.188Z,61.24
2022-11-24T14:03:16.460Z,61.73
2022-11-24T14:08:23.624Z,58.73
2022-11-24T14:13:30.882Z,61.24
2022-11-24T14:18:38.143Z,60.49
2022-11-24T14:23:45.340Z,61.24
2022-11-24T14:28:52.601Z,61.98
2022-11-24T14:33:59.707Z,63.22
2022-11-24T14:39:06.874Z,61.24
2022-11-24T14:44:14.118Z,59.74
2022-11-24T14:49:21.343Z,62.23
2022-11-24T14:54:28.523Z,61.24
2022-11-24T14:59:35.774Z,60.49
2022-11-24T15:09:50.207Z,61.24
2022-11-24T15:14:57.464Z,58.48
2022-11-24T15:20:04.883Z,60.99
2022-11-24T15:25:11.988Z,62.23
2022-11-24T15:30:19.258Z,61.48
2022-11-24T15:35:26.548Z,60.99
2022-11-24T15:40:33.803Z,60.99
2022-11-24T15:45:41.045Z,55.94
2022-11-24T15:50:48.327Z,53.36
2022-11-24T15:55:55.511Z,51.80
2022-11-24T16:01:02.832Z,46.48
2022-11-24T16:06:09.907Z,52.84
2022-11-24T16:11:17.107Z,51.80
2022-11-24T16:16:24.407Z,53.10
2022-11-24T16:21:31.636Z,50.49
2022-11-24T16:26:38.853Z,51.27
2022-11-24T16:31:46.122Z,51.27
2022-11-24T16:36:53.563Z,52.06
2022-11-24T16:42:00.924Z,53.88
2022-11-24T16:47:08.190Z,52.58
2022-11-24T16:52:15.431Z,52.32
2022-11-24T16:57:22.869Z,51.54
2022-11-24T17:02:30.337Z,54.40
2022-11-24T17:07:37.960Z,51.54
2022-11-24T17:12:45.607Z,52.06
2022-11-24T17:18:22.323Z,51.54
2022-11-24T17:23:00.772Z,51.80
2022-11-24T17:28:08.025Z,52.06
2022-11-24T17:33:16.574Z,51.54
2022-11-24T17:38:24.103Z,51.54
2022-11-24T17:43:31.600Z,51.27
2022-11-24T17:48:39.112Z,53.88
2022-11-24T17:53:46.756Z,52.32
2022-11-24T17:58:54.352Z,47.29
2022-11-24T18:04:01.944Z,51.01
2022-11-24T18:09:09.688Z,52.58
2022-11-24T18:14:17.384Z,50.49
2022-11-24T18:19:26.132Z,51.27
2022-11-24T18:24:33.874Z,54.40
2022-11-24T18:29:41.361Z,52.06
2022-11-24T18:34:48.676Z,52.32
2022-11-24T18:39:55.942Z,48.63
2022-11-24T18:45:03.379Z,52.32
2022-11-24T18:50:10.991Z,60.74
2022-11-24T18:55:19.345Z,60.74
2022-11-24T19:00:26.733Z,59.23
2022-11-24T19:05:34.349Z,61.24
2022-11-24T19:10:42.092Z,61.48
2022-11-24T19:15:49.781Z,60.74
2022-11-24T19:20:57.393Z,63.47
2022-11-24T19:26:05.135Z,61.48
2022-11-24T19:31:12.593Z,61.48
2022-11-24T19:36:20.036Z,61.48
2022-11-24T19:41:27.723Z,59.49
2022-11-24T19:46:35.025Z,61.24
2022-11-24T19:51:42.313Z,61.48
2022-11-24T19:56:49.914Z,61.48
2022-11-24T20:01:57.756Z,61.73
2022-11-24T20:07:05.221Z,62.72
2022-11-24T20:12:13.059Z,60.99
2022-11-24T20:17:20.437Z,61.24
2022-11-24T20:22:27.951Z,58.73
2022-11-24T20:27:35.688Z,61.24
2022-11-24T20:32:43.382Z,60.99
2022-11-24T20:38:37.785Z,60.74
2022-11-24T20:43:45.172Z,59.49
2022-11-24T20:48:52.403Z,61.24
2022-11-24T20:53:59.871Z,60.74
2022-11-24T20:59:07.212Z,61.24
2022-11-24T21:04:14.730Z,60.99
2022-11-24T21:09:22.347Z,60.74
2022-11-24T21:14:35.011Z,62.97
2022-11-24T21:19:36.861Z,61.73
2022-11-24T21:24:44.119Z,60.99
2022-11-24T21:29:51.353Z,58.48
2022-11-24T21:34:58.558Z,61.73
2022-11-24T21:40:05.781Z,60.24
2022-11-24T21:45:13.036Z,60.24
2022-11-24T21:50:20.211Z,60.24
2022-11-24T21:55:27.367Z,59.99
2022-11-24T22:00:34.619Z,62.48
2022-11-24T22:05:41.835Z,60.99
2022-11-24T22:10:49.090Z,60.74
2022-11-24T22:15:56.325Z,60.74
2022-11-24T22:21:03.440Z,60.74
2022-11-24T22:26:10.622Z,62.48
2022-11-24T22:31:17.983Z,59.23
2022-11-24T22:36:25.058Z,61.48
2022-11-24T22:41:32.238Z,60.99
2022-11-24T22:46:39.485Z,60.99
2022-11-24T22:51:46.653Z,59.49
2022-11-24T22:56:53.896Z,61.24
2022-11-24T23:02:01.131Z,60.99
2022-11-24T23:07:08.394Z,63.47
2022-11-24T23:12:15.521Z,60.99
2022-11-24T23:17:22.704Z,58.98
2022-11-24T23:22:29.889Z,61.98
2022-11-24T23:27:37.154Z,60.99
2022-11-24T23:32:44.390Z,60.74
2022-11-24T23:38:07.053Z,60.99
2022-11-24T23:42:58.856Z,58.98
2022-11-24T23:48:06.198Z,61.48
2022-11-24T23:53:13.414Z,63.22
2022-11-24T23:58:20.684Z,61.98
